sensor_id;sensor_type;location;lat;lon;timestamp;P1;durP1;ratioP1;P2;durP2;ratioP2
18857;SDS011;9558;50.178;8.370;2023-02-22T00:00:08;19.42;;;2.53;;
18857;SDS011;9558;50.178;8.370;2023-02-22T00:02:45;4.00;;;2.67;;
18857;SDS011;9558;50.178;8.370;2023-02-22T00:05:12;8.07;;;2.42;;
18857;SDS011;9558;50.178;8.370;2023-02-22T00:07:41;4.88;;;2.90;;
18857;SDS011;9558;50.178;8.370;2023-02-22T00:10:08;6.97;;;3.15;;
18857;SDS011;9558;50.178;8.370;2023-02-22T00:12:37;6.68;;;2.55;;
18857;SDS011;9558;50.178;8.370;2023-02-22T00:15:04;4.82;;;3.40;;
18857;SDS011;9558;50.178;8.370;2023-02-22T00:17:31;3.05;;;2.25;;
18857;SDS011;9558;50.178;8.370;2023-02-22T00:19:59;5.10;;;2.33;;
18857;SDS011;9558;50.178;8.370;2023-02-22T00:22:26;6.30;;;2.53;;
18857;SDS011;9558;50.178;8.370;2023-02-22T00:24:52;3.05;;;1.70;;
18857;SDS011;9558;50.178;8.370;2023-02-22T00:27:19;4.95;;;2.83;;
18857;SDS011;9558;50.178;8.370;2023-02-22T00:29:46;10.35;;;3.13;;
18857;SDS011;9558;50.178;8.370;2023-02-22T00:32:13;8.70;;;3.05;;
18857;SDS011;9558;50.178;8.370;2023-02-22T00:34:40;9.45;;;3.63;;
18857;SDS011;9558;50.178;8.370;2023-02-22T00:37:09;9.18;;;3.90;;
18857;SDS011;9558;50.178;8.370;2023-02-22T00:39:35;4.10;;;3.25;;
18857;SDS011;9558;50.178;8.370;2023-02-22T00:42:02;10.35;;;3.42;;
18857;SDS011;9558;50.178;8.370;2023-02-22T00:44:29;8.60;;;4.35;;
18857;SDS011;9558;50.178;8.370;2023-02-22T00:46:57;5.57;;;2.25;;
18857;SDS011;9558;50.178;8.370;2023-02-22T00:49:23;4.50;;;2.75;;
18857;SDS011;9558;50.178;8.370;2023-02-22T00:51:50;8.55;;;4.93;;
18857;SDS011;9558;50.178;8.370;2023-02-22T00:54:17;9.68;;;4.38;;
18857;SDS011;9558;50.178;8.370;2023-02-22T00:56:44;18.23;;;3.97;;
18857;SDS011;9558;50.178;8.370;2023-02-22T00:59:11;11.68;;;3.20;;
18857;SDS011;9558;50.178;8.370;2023-02-22T01:01:37;5.30;;;2.90;;
18857;SDS011;9558;50.178;8.370;2023-02-22T01:04:04;4.57;;;3.22;;
18857;SDS011;9558;50.178;8.370;2023-02-22T01:06:31;6.32;;;2.95;;
18857;SDS011;9558;50.178;8.370;2023-02-22T01:08:58;7.47;;;4.22;;
18857;SDS011;9558;50.178;8.370;2023-02-22T01:11:27;5.82;;;2.95;;
18857;SDS011;9558;50.178;8.370;2023-02-22T01:13:54;8.73;;;3.30;;
18857;SDS011;9558;50.178;8.370;2023-02-22T01:16:22;5.65;;;2.95;;
18857;SDS011;9558;50.178;8.370;2023-02-22T01:18:48;5.38;;;2.85;;
18857;SDS011;9558;50.178;8.370;2023-02-22T01:21:15;9.40;;;4.47;;
18857;SDS011;9558;50.178;8.370;2023-02-22T01:23:43;10.80;;;3.63;;
18857;SDS011;9558;50.178;8.370;2023-02-22T01:26:09;5.80;;;3.13;;
18857;SDS011;9558;50.178;8.370;2023-02-22T01:28:37;7.43;;;3.20;;
18857;SDS011;9558;50.178;8.370;2023-02-22T01:31:04;5.15;;;2.35;;
18857;SDS011;9558;50.178;8.370;2023-02-22T01:33:31;8.57;;;3.38;;
18857;SDS011;9558;50.178;8.370;2023-02-22T01:35:58;10.93;;;3.97;;
18857;SDS011;9558;50.178;8.370;2023-02-22T01:38:25;7.68;;;3.88;;
18857;SDS011;9558;50.178;8.370;2023-02-22T01:40:51;7.18;;;3.35;;
18857;SDS011;9558;50.178;8.370;2023-02-22T01:43:20;5.90;;;3.28;;
18857;SDS011;9558;50.178;8.370;2023-02-22T01:45:57;5.88;;;3.05;;
18857;SDS011;9558;50.178;8.370;2023-02-22T01:48:33;6.70;;;3.72;;
18857;SDS011;9558;50.178;8.370;2023-02-22T01:51:05;5.47;;;3.42;;
18857;SDS011;9558;50.178;8.370;2023-02-22T01:53:37;5.85;;;4.25;;
18857;SDS011;9558;50.178;8.370;2023-02-22T01:56:06;6.57;;;3.33;;
18857;SDS011;9558;50.178;8.370;2023-02-22T01:58:34;7.38;;;3.00;;
18857;SDS011;9558;50.178;8.370;2023-02-22T02:01:05;4.85;;;3.90;;
18857;SDS011;9558;50.178;8.370;2023-02-22T02:03:34;6.35;;;3.50;;
18857;SDS011;9558;50.178;8.370;2023-02-22T02:06:03;10.02;;;4.22;;
18857;SDS011;9558;50.178;8.370;2023-02-22T02:08:37;5.93;;;3.45;;
18857;SDS011;9558;50.178;8.370;2023-02-22T02:11:13;15.00;;;3.38;;
18857;SDS011;9558;50.178;8.370;2023-02-22T02:13:42;5.82;;;3.75;;
18857;SDS011;9558;50.178;8.370;2023-02-22T02:16:11;9.13;;;3.28;;
18857;SDS011;9558;50.178;8.370;2023-02-22T02:18:38;9.10;;;3.33;;
18857;SDS011;9558;50.178;8.370;2023-02-22T02:21:23;6.95;;;3.72;;
18857;SDS011;9558;50.178;8.370;2023-02-22T02:27:12;7.10;;;3.58;;
18857;SDS011;9558;50.178;8.370;2023-02-22T02:32:57;9.15;;;4.50;;
18857;SDS011;9558;50.178;8.370;2023-02-22T02:35:36;4.07;;;3.00;;
18857;SDS011;9558;50.178;8.370;2023-02-22T02:38:15;20.13;;;5.18;;
18857;SDS011;9558;50.178;8.370;2023-02-22T02:40:50;8.48;;;3.83;;
18857;SDS011;9558;50.178;8.370;2023-02-22T02:43:24;8.82;;;3.95;;
18857;SDS011;9558;50.178;8.370;2023-02-22T02:45:57;5.47;;;3.97;;
18857;SDS011;9558;50.178;8.370;2023-02-22T02:48:32;5.15;;;3.35;;
18857;SDS011;9558;50.178;8.370;2023-02-22T02:51:02;22.67;;;2.92;;
18857;SDS011;9558;50.178;8.370;2023-02-22T02:53:33;3.95;;;2.85;;
18857;SDS011;9558;50.178;8.370;2023-02-22T02:56:03;4.82;;;3.42;;
18857;SDS011;9558;50.178;8.370;2023-02-22T02:58:31;7.20;;;2.13;;
18857;SDS011;9558;50.178;8.370;2023-02-22T03:01:00;7.43;;;3.22;;
18857;SDS011;9558;50.178;8.370;2023-02-22T03:03:41;7.35;;;4.35;;
18857;SDS011;9558;50.178;8.370;2023-02-22T03:06:16;10.77;;;3.42;;
18857;SDS011;9558;50.178;8.370;2023-02-22T03:08:56;8.63;;;3.75;;
18857;SDS011;9558;50.178;8.370;2023-02-22T03:11:29;13.57;;;4.22;;
18857;SDS011;9558;50.178;8.370;2023-02-22T03:14:05;8.98;;;3.38;;
18857;SDS011;9558;50.178;8.370;2023-02-22T03:19:11;10.00;;;3.72;;
18857;SDS011;9558;50.178;8.370;2023-02-22T03:21:49;5.03;;;2.78;;
18857;SDS011;9558;50.178;8.370;2023-02-22T03:24:24;4.88;;;3.42;;
18857;SDS011;9558;50.178;8.370;2023-02-22T03:26:57;8.13;;;3.30;;
18857;SDS011;9558;50.178;8.370;2023-02-22T03:29:33;4.13;;;2.58;;
18857;SDS011;9558;50.178;8.370;2023-02-22T03:32:06;5.03;;;3.35;;
18857;SDS011;9558;50.178;8.370;2023-02-22T03:34:37;6.75;;;3.55;;
18857;SDS011;9558;50.178;8.370;2023-02-22T03:37:09;6.57;;;3.58;;
18857;SDS011;9558;50.178;8.370;2023-02-22T03:39:40;4.78;;;3.20;;
18857;SDS011;9558;50.178;8.370;2023-02-22T03:42:12;15.13;;;3.55;;
18857;SDS011;9558;50.178;8.370;2023-02-22T03:44:42;7.00;;;3.60;;
18857;SDS011;9558;50.178;8.370;2023-02-22T03:47:11;4.78;;;3.63;;
18857;SDS011;9558;50.178;8.370;2023-02-22T03:49:45;7.53;;;3.20;;
18857;SDS011;9558;50.178;8.370;2023-02-22T03:52:16;6.28;;;3.28;;
18857;SDS011;9558;50.178;8.370;2023-02-22T03:54:44;5.80;;;3.40;;
18857;SDS011;9558;50.178;8.370;2023-02-22T03:57:11;5.45;;;3.75;;
18857;SDS011;9558;50.178;8.370;2023-02-22T03:59:42;7.28;;;3.90;;
18857;SDS011;9558;50.178;8.370;2023-02-22T04:02:09;5.75;;;3.28;;
18857;SDS011;9558;50.178;8.370;2023-02-22T04:04:36;10.02;;;3.30;;
18857;SDS011;9558;50.178;8.370;2023-02-22T04:07:04;10.75;;;4.47;;
18857;SDS011;9558;50.178;8.370;2023-02-22T04:09:30;7.10;;;3.22;;
18857;SDS011;9558;50.178;8.370;2023-02-22T04:11:57;8.27;;;3.58;;
18857;SDS011;9558;50.178;8.370;2023-02-22T04:14:23;6.00;;;2.85;;
18857;SDS011;9558;50.178;8.370;2023-02-22T04:16:51;6.78;;;3.28;;
18857;SDS011;9558;50.178;8.370;2023-02-22T04:19:17;8.93;;;3.55;;
18857;SDS011;9558;50.178;8.370;2023-02-22T04:21:44;6.57;;;3.80;;
18857;SDS011;9558;50.178;8.370;2023-02-22T04:24:12;5.45;;;2.55;;
18857;SDS011;9558;50.178;8.370;2023-02-22T04:29:05;3.25;;;2.83;;
18857;SDS011;9558;50.178;8.370;2023-02-22T04:31:32;4.07;;;2.88;;
18857;SDS011;9558;50.178;8.370;2023-02-22T04:33:59;11.57;;;3.83;;
18857;SDS011;9558;50.178;8.370;2023-02-22T04:36:26;6.85;;;3.03;;
18857;SDS011;9558;50.178;8.370;2023-02-22T04:38:55;9.93;;;3.65;;
18857;SDS011;9558;50.178;8.370;2023-02-22T04:41:23;4.50;;;3.50;;
18857;SDS011;9558;50.178;8.370;2023-02-22T04:46:16;5.65;;;3.42;;
18857;SDS011;9558;50.178;8.370;2023-02-22T04:48:43;6.03;;;3.95;;
18857;SDS011;9558;50.178;8.370;2023-02-22T04:51:10;5.95;;;3.10;;
18857;SDS011;9558;50.178;8.370;2023-02-22T04:53:37;5.72;;;3.38;;
18857;SDS011;9558;50.178;8.370;2023-02-22T04:56:03;5.68;;;3.38;;
18857;SDS011;9558;50.178;8.370;2023-02-22T04:58:32;9.13;;;3.88;;
18857;SDS011;9558;50.178;8.370;2023-02-22T05:03:25;3.80;;;2.85;;
18857;SDS011;9558;50.178;8.370;2023-02-22T05:05:51;7.85;;;3.03;;
18857;SDS011;9558;50.178;8.370;2023-02-22T05:08:18;5.03;;;3.28;;
18857;SDS011;9558;50.178;8.370;2023-02-22T05:10:44;7.72;;;2.60;;
18857;SDS011;9558;50.178;8.370;2023-02-22T05:13:11;12.63;;;4.70;;
18857;SDS011;9558;50.178;8.370;2023-02-22T05:15:39;7.18;;;2.78;;
18857;SDS011;9558;50.178;8.370;2023-02-22T05:20:32;3.17;;;2.85;;
18857;SDS011;9558;50.178;8.370;2023-02-22T05:23:01;5.13;;;2.65;;
18857;SDS011;9558;50.178;8.370;2023-02-22T05:25:29;14.13;;;3.83;;
18857;SDS011;9558;50.178;8.370;2023-02-22T05:27:56;6.95;;;3.75;;
18857;SDS011;9558;50.178;8.370;2023-02-22T05:30:25;4.80;;;2.75;;
18857;SDS011;9558;50.178;8.370;2023-02-22T05:32:55;7.13;;;4.55;;
18857;SDS011;9558;50.178;8.370;2023-02-22T05:35:23;5.43;;;3.25;;
18857;SDS011;9558;50.178;8.370;2023-02-22T05:37:50;10.88;;;3.80;;
18857;SDS011;9558;50.178;8.370;2023-02-22T05:42:43;7.40;;;4.70;;
18857;SDS011;9558;50.178;8.370;2023-02-22T05:45:11;6.15;;;2.55;;
18857;SDS011;9558;50.178;8.370;2023-02-22T05:47:37;8.07;;;2.65;;
18857;SDS011;9558;50.178;8.370;2023-02-22T05:50:06;9.88;;;5.00;;
18857;SDS011;9558;50.178;8.370;2023-02-22T05:52:33;5.32;;;3.25;;
18857;SDS011;9558;50.178;8.370;2023-02-22T05:55:00;10.18;;;3.38;;
18857;SDS011;9558;50.178;8.370;2023-02-22T05:57:26;2.67;;;2.47;;
18857;SDS011;9558;50.178;8.370;2023-02-22T05:59:53;16.80;;;4.25;;
18857;SDS011;9558;50.178;8.370;2023-02-22T06:02:19;4.55;;;3.72;;
18857;SDS011;9558;50.178;8.370;2023-02-22T06:04:46;4.28;;;3.10;;
18857;SDS011;9558;50.178;8.370;2023-02-22T06:07:14;7.88;;;3.83;;
18857;SDS011;9558;50.178;8.370;2023-02-22T06:09:40;7.75;;;3.40;;
18857;SDS011;9558;50.178;8.370;2023-02-22T06:12:07;7.05;;;3.90;;
18857;SDS011;9558;50.178;8.370;2023-02-22T06:14:35;7.10;;;3.88;;
18857;SDS011;9558;50.178;8.370;2023-02-22T06:17:01;10.15;;;4.10;;
18857;SDS011;9558;50.178;8.370;2023-02-22T06:19:29;11.75;;;5.03;;
18857;SDS011;9558;50.178;8.370;2023-02-22T06:21:56;13.75;;;6.45;;
18857;SDS011;9558;50.178;8.370;2023-02-22T06:24:25;10.40;;;5.65;;
18857;SDS011;9558;50.178;8.370;2023-02-22T06:29:19;10.45;;;3.45;;
18857;SDS011;9558;50.178;8.370;2023-02-22T06:31:46;5.43;;;3.80;;
18857;SDS011;9558;50.178;8.370;2023-02-22T06:34:12;11.10;;;4.40;;
18857;SDS011;9558;50.178;8.370;2023-02-22T06:36:39;9.30;;;5.20;;
18857;SDS011;9558;50.178;8.370;2023-02-22T06:39:06;7.47;;;4.30;;
18857;SDS011;9558;50.178;8.370;2023-02-22T06:41:37;4.72;;;2.47;;
18857;SDS011;9558;50.178;8.370;2023-02-22T06:44:04;8.63;;;4.05;;
18857;SDS011;9558;50.178;8.370;2023-02-22T06:46:30;5.80;;;3.55;;
18857;SDS011;9558;50.178;8.370;2023-02-22T06:48:57;11.63;;;3.35;;
18857;SDS011;9558;50.178;8.370;2023-02-22T06:51:24;4.22;;;2.88;;
18857;SDS011;9558;50.178;8.370;2023-02-22T06:53:51;7.97;;;3.25;;
18857;SDS011;9558;50.178;8.370;2023-02-22T06:56:18;6.35;;;3.20;;
18857;SDS011;9558;50.178;8.370;2023-02-22T06:58:46;9.05;;;3.20;;
18857;SDS011;9558;50.178;8.370;2023-02-22T07:01:14;4.65;;;3.47;;
18857;SDS011;9558;50.178;8.370;2023-02-22T07:03:40;3.70;;;2.55;;
18857;SDS011;9558;50.178;8.370;2023-02-22T07:06:07;6.82;;;3.05;;
18857;SDS011;9558;50.178;8.370;2023-02-22T07:08:34;3.80;;;1.90;;
18857;SDS011;9558;50.178;8.370;2023-02-22T07:11:01;13.35;;;3.15;;
18857;SDS011;9558;50.178;8.370;2023-02-22T07:13:28;5.03;;;2.80;;
18857;SDS011;9558;50.178;8.370;2023-02-22T07:15:56;7.72;;;3.15;;
18857;SDS011;9558;50.178;8.370;2023-02-22T07:18:23;5.00;;;2.78;;
18857;SDS011;9558;50.178;8.370;2023-02-22T07:20:50;8.55;;;3.50;;
18857;SDS011;9558;50.178;8.370;2023-02-22T07:23:16;6.75;;;3.55;;
18857;SDS011;9558;50.178;8.370;2023-02-22T07:25:43;7.72;;;3.13;;
18857;SDS011;9558;50.178;8.370;2023-02-22T07:28:10;4.28;;;2.50;;
18857;SDS011;9558;50.178;8.370;2023-02-22T07:30:37;5.95;;;3.90;;
18857;SDS011;9558;50.178;8.370;2023-02-22T07:33:06;7.88;;;3.88;;
18857;SDS011;9558;50.178;8.370;2023-02-22T07:35:35;4.57;;;3.03;;
18857;SDS011;9558;50.178;8.370;2023-02-22T07:38:05;9.73;;;4.75;;
18857;SDS011;9558;50.178;8.370;2023-02-22T07:40:33;6.35;;;3.28;;
18857;SDS011;9558;50.178;8.370;2023-02-22T07:45:28;4.05;;;2.42;;
18857;SDS011;9558;50.178;8.370;2023-02-22T07:47:56;10.82;;;3.42;;
18857;SDS011;9558;50.178;8.370;2023-02-22T07:50:25;7.00;;;3.15;;
18857;SDS011;9558;50.178;8.370;2023-02-22T07:52:55;5.47;;;3.03;;
18857;SDS011;9558;50.178;8.370;2023-02-22T07:55:24;7.47;;;3.33;;
18857;SDS011;9558;50.178;8.370;2023-02-22T07:57:52;9.23;;;4.30;;
18857;SDS011;9558;50.178;8.370;2023-02-22T08:00:21;14.45;;;5.25;;
18857;SDS011;9558;50.178;8.370;2023-02-22T08:02:49;7.30;;;3.55;;
18857;SDS011;9558;50.178;8.370;2023-02-22T08:05:16;10.68;;;5.75;;
18857;SDS011;9558;50.178;8.370;2023-02-22T08:10:12;6.80;;;3.40;;
18857;SDS011;9558;50.178;8.370;2023-02-22T08:12:39;10.13;;;3.70;;
18857;SDS011;9558;50.178;8.370;2023-02-22T08:15:07;6.05;;;4.07;;
18857;SDS011;9558;50.178;8.370;2023-02-22T08:17:40;12.90;;;4.05;;
18857;SDS011;9558;50.178;8.370;2023-02-22T08:20:06;9.85;;;4.47;;
18857;SDS011;9558;50.178;8.370;2023-02-22T08:22:33;10.05;;;3.72;;
18857;SDS011;9558;50.178;8.370;2023-02-22T08:25:01;7.07;;;3.67;;
18857;SDS011;9558;50.178;8.370;2023-02-22T08:27:28;8.13;;;4.28;;
18857;SDS011;9558;50.178;8.370;2023-02-22T08:29:55;8.93;;;4.00;;
18857;SDS011;9558;50.178;8.370;2023-02-22T08:32:22;11.32;;;4.53;;
18857;SDS011;9558;50.178;8.370;2023-02-22T08:34:49;11.27;;;4.15;;
18857;SDS011;9558;50.178;8.370;2023-02-22T08:37:16;8.90;;;3.95;;
18857;SDS011;9558;50.178;8.370;2023-02-22T08:39:44;13.15;;;4.93;;
18857;SDS011;9558;50.178;8.370;2023-02-22T08:42:12;7.28;;;3.63;;
18857;SDS011;9558;50.178;8.370;2023-02-22T08:44:39;7.47;;;3.20;;
18857;SDS011;9558;50.178;8.370;2023-02-22T08:47:06;8.55;;;4.40;;
18857;SDS011;9558;50.178;8.370;2023-02-22T08:49:33;4.80;;;3.63;;
18857;SDS011;9558;50.178;8.370;2023-02-22T08:52:00;8.18;;;3.67;;
18857;SDS011;9558;50.178;8.370;2023-02-22T08:54:26;9.45;;;4.45;;
18857;SDS011;9558;50.178;8.370;2023-02-22T08:56:53;6.70;;;3.42;;
18857;SDS011;9558;50.178;8.370;2023-02-22T08:59:22;9.15;;;4.50;;
18857;SDS011;9558;50.178;8.370;2023-02-22T09:01:48;7.95;;;3.80;;
18857;SDS011;9558;50.178;8.370;2023-02-22T09:04:15;5.70;;;3.50;;
18857;SDS011;9558;50.178;8.370;2023-02-22T09:06:41;8.10;;;4.05;;
18857;SDS011;9558;50.178;8.370;2023-02-22T09:09:12;9.80;;;4.47;;
18857;SDS011;9558;50.178;8.370;2023-02-22T09:11:39;7.00;;;3.78;;
18857;SDS011;9558;50.178;8.370;2023-02-22T09:14:05;6.38;;;3.78;;
18857;SDS011;9558;50.178;8.370;2023-02-22T09:16:33;13.80;;;4.50;;
18857;SDS011;9558;50.178;8.370;2023-02-22T09:19:02;7.75;;;4.13;;
18857;SDS011;9558;50.178;8.370;2023-02-22T09:21:28;6.95;;;4.72;;
18857;SDS011;9558;50.178;8.370;2023-02-22T09:23:55;7.30;;;4.30;;
18857;SDS011;9558;50.178;8.370;2023-02-22T09:26:22;10.13;;;4.05;;
18857;SDS011;9558;50.178;8.370;2023-02-22T09:28:48;11.27;;;4.95;;
18857;SDS011;9558;50.178;8.370;2023-02-22T09:31:15;10.07;;;5.53;;
18857;SDS011;9558;50.178;8.370;2023-02-22T09:33:43;9.45;;;4.72;;
18857;SDS011;9558;50.178;8.370;2023-02-22T09:36:10;8.30;;;4.85;;
18857;SDS011;9558;50.178;8.370;2023-02-22T09:38:37;10.80;;;4.70;;
18857;SDS011;9558;50.178;8.370;2023-02-22T09:41:07;10.40;;;5.43;;
18857;SDS011;9558;50.178;8.370;2023-02-22T09:43:40;10.60;;;5.35;;
18857;SDS011;9558;50.178;8.370;2023-02-22T09:46:17;9.98;;;5.53;;
18857;SDS011;9558;50.178;8.370;2023-02-22T09:51:44;10.95;;;5.30;;
18857;SDS011;9558;50.178;8.370;2023-02-22T09:54:18;12.18;;;5.28;;
18857;SDS011;9558;50.178;8.370;2023-02-22T09:56:50;9.15;;;5.07;;
18857;SDS011;9558;50.178;8.370;2023-02-22T09:59:22;8.93;;;5.03;;
18857;SDS011;9558;50.178;8.370;2023-02-22T10:01:57;11.32;;;5.55;;
18857;SDS011;9558;50.178;8.370;2023-02-22T10:04:35;11.30;;;5.38;;
18857;SDS011;9558;50.178;8.370;2023-02-22T10:07:10;10.43;;;4.85;;
18857;SDS011;9558;50.178;8.370;2023-02-22T10:09:42;8.48;;;5.32;;
18857;SDS011;9558;50.178;8.370;2023-02-22T10:12:14;9.27;;;5.35;;
18857;SDS011;9558;50.178;8.370;2023-02-22T10:15:07;9.00;;;5.10;;
18857;SDS011;9558;50.178;8.370;2023-02-22T10:17:47;9.45;;;5.18;;
18857;SDS011;9558;50.178;8.370;2023-02-22T10:20:29;9.68;;;4.93;;
18857;SDS011;9558;50.178;8.370;2023-02-22T10:23:08;8.05;;;5.05;;
18857;SDS011;9558;50.178;8.370;2023-02-22T10:25:44;7.97;;;4.72;;
18857;SDS011;9558;50.178;8.370;2023-02-22T10:28:17;13.35;;;5.30;;
18857;SDS011;9558;50.178;8.370;2023-02-22T10:30:48;8.95;;;5.13;;
18857;SDS011;9558;50.178;8.370;2023-02-22T10:33:19;10.73;;;5.07;;
18857;SDS011;9558;50.178;8.370;2023-02-22T10:35:48;13.13;;;5.57;;
18857;SDS011;9558;50.178;8.370;2023-02-22T10:38:17;9.32;;;4.90;;
18857;SDS011;9558;50.178;8.370;2023-02-22T10:40:48;8.82;;;4.90;;
18857;SDS011;9558;50.178;8.370;2023-02-22T10:43:20;10.18;;;5.28;;
18857;SDS011;9558;50.178;8.370;2023-02-22T10:45:47;8.35;;;4.68;;
18857;SDS011;9558;50.178;8.370;2023-02-22T10:48:17;11.18;;;5.78;;
18857;SDS011;9558;50.178;8.370;2023-02-22T10:50:47;12.48;;;5.50;;
18857;SDS011;9558;50.178;8.370;2023-02-22T10:53:18;10.57;;;5.30;;
18857;SDS011;9558;50.178;8.370;2023-02-22T10:58:40;14.48;;;5.45;;
18857;SDS011;9558;50.178;8.370;2023-02-22T11:01:25;9.63;;;5.32;;
18857;SDS011;9558;50.178;8.370;2023-02-22T11:04:09;9.80;;;4.97;;
18857;SDS011;9558;50.178;8.370;2023-02-22T11:06:40;11.35;;;5.45;;
18857;SDS011;9558;50.178;8.370;2023-02-22T11:09:09;12.38;;;5.85;;
18857;SDS011;9558;50.178;8.370;2023-02-22T11:11:38;15.90;;;6.45;;
18857;SDS011;9558;50.178;8.370;2023-02-22T11:14:07;10.57;;;5.30;;
18857;SDS011;9558;50.178;8.370;2023-02-22T11:16:36;11.73;;;6.90;;
18857;SDS011;9558;50.178;8.370;2023-02-22T11:19:08;11.23;;;6.45;;
18857;SDS011;9558;50.178;8.370;2023-02-22T11:21:43;15.07;;;6.05;;
18857;SDS011;9558;50.178;8.370;2023-02-22T11:24:11;11.88;;;6.72;;
18857;SDS011;9558;50.178;8.370;2023-02-22T11:26:40;13.77;;;6.93;;
18857;SDS011;9558;50.178;8.370;2023-02-22T11:29:09;14.10;;;6.57;;
18857;SDS011;9558;50.178;8.370;2023-02-22T11:31:41;12.75;;;6.72;;
18857;SDS011;9558;50.178;8.370;2023-02-22T11:34:24;13.57;;;6.50;;
18857;SDS011;9558;50.178;8.370;2023-02-22T11:36:58;12.60;;;6.22;;
18857;SDS011;9558;50.178;8.370;2023-02-22T11:39:41;10.18;;;5.93;;
18857;SDS011;9558;50.178;8.370;2023-02-22T11:42:19;21.05;;;7.10;;
18857;SDS011;9558;50.178;8.370;2023-02-22T11:44:48;9.85;;;6.18;;
18857;SDS011;9558;50.178;8.370;2023-02-22T11:47:15;12.18;;;5.65;;
18857;SDS011;9558;50.178;8.370;2023-02-22T11:49:43;14.95;;;6.68;;
18857;SDS011;9558;50.178;8.370;2023-02-22T11:52:15;19.95;;;7.03;;
18857;SDS011;9558;50.178;8.370;2023-02-22T11:55:12;13.13;;;7.13;;
18857;SDS011;9558;50.178;8.370;2023-02-22T11:57:50;14.38;;;7.03;;
18857;SDS011;9558;50.178;8.370;2023-02-22T12:00:30;12.63;;;6.10;;
18857;SDS011;9558;50.178;8.370;2023-02-22T12:03:07;11.52;;;6.38;;
18857;SDS011;9558;50.178;8.370;2023-02-22T12:05:54;16.02;;;6.90;;
18857;SDS011;9558;50.178;8.370;2023-02-22T12:08:34;13.55;;;7.28;;
18857;SDS011;9558;50.178;8.370;2023-02-22T12:11:11;14.95;;;7.32;;
18857;SDS011;9558;50.178;8.370;2023-02-22T12:13:55;14.18;;;7.18;;
18857;SDS011;9558;50.178;8.370;2023-02-22T12:16:33;18.63;;;7.80;;
18857;SDS011;9558;50.178;8.370;2023-02-22T12:19:14;12.25;;;5.97;;
18857;SDS011;9558;50.178;8.370;2023-02-22T12:21:48;17.90;;;6.63;;
18857;SDS011;9558;50.178;8.370;2023-02-22T12:24:21;16.35;;;6.22;;
18857;SDS011;9558;50.178;8.370;2023-02-22T12:26:52;12.50;;;5.72;;
18857;SDS011;9558;50.178;8.370;2023-02-22T12:29:27;15.50;;;6.53;;
18857;SDS011;9558;50.178;8.370;2023-02-22T12:31:59;11.70;;;6.00;;
18857;SDS011;9558;50.178;8.370;2023-02-22T12:34:33;9.98;;;5.45;;
18857;SDS011;9558;50.178;8.370;2023-02-22T12:37:08;12.63;;;5.82;;
18857;SDS011;9558;50.178;8.370;2023-02-22T12:39:45;12.25;;;5.63;;
18857;SDS011;9558;50.178;8.370;2023-02-22T12:42:19;10.65;;;5.22;;
18857;SDS011;9558;50.178;8.370;2023-02-22T12:44:51;13.65;;;4.88;;
18857;SDS011;9558;50.178;8.370;2023-02-22T12:47:23;10.30;;;5.57;;
18857;SDS011;9558;50.178;8.370;2023-02-22T12:52:27;11.23;;;5.32;;
18857;SDS011;9558;50.178;8.370;2023-02-22T12:55:08;13.63;;;6.40;;
18857;SDS011;9558;50.178;8.370;2023-02-22T12:57:41;11.43;;;6.05;;
18857;SDS011;9558;50.178;8.370;2023-02-22T13:00:14;12.52;;;5.45;;
18857;SDS011;9558;50.178;8.370;2023-02-22T13:02:49;12.35;;;6.07;;
18857;SDS011;9558;50.178;8.370;2023-02-22T13:05:22;9.88;;;5.22;;
18857;SDS011;9558;50.178;8.370;2023-02-22T13:07:51;12.68;;;5.18;;
18857;SDS011;9558;50.178;8.370;2023-02-22T13:10:31;13.75;;;5.97;;
18857;SDS011;9558;50.178;8.370;2023-02-22T13:13:06;14.07;;;6.20;;
18857;SDS011;9558;50.178;8.370;2023-02-22T13:15:39;13.95;;;5.38;;
18857;SDS011;9558;50.178;8.370;2023-02-22T13:18:18;11.95;;;5.22;;
18857;SDS011;9558;50.178;8.370;2023-02-22T13:20:56;11.77;;;6.15;;
18857;SDS011;9558;50.178;8.370;2023-02-22T13:23:30;12.32;;;5.65;;
18857;SDS011;9558;50.178;8.370;2023-02-22T13:26:07;12.75;;;6.60;;
18857;SDS011;9558;50.178;8.370;2023-02-22T13:28:40;10.60;;;4.88;;
18857;SDS011;9558;50.178;8.370;2023-02-22T13:31:17;9.73;;;5.03;;
18857;SDS011;9558;50.178;8.370;2023-02-22T13:33:58;9.95;;;5.38;;
18857;SDS011;9558;50.178;8.370;2023-02-22T13:36:37;9.30;;;4.97;;
18857;SDS011;9558;50.178;8.370;2023-02-22T13:39:24;10.77;;;4.65;;
18857;SDS011;9558;50.178;8.370;2023-02-22T13:42:21;7.70;;;4.10;;
18857;SDS011;9558;50.178;8.370;2023-02-22T13:45:18;5.70;;;3.67;;
18857;SDS011;9558;50.178;8.370;2023-02-22T13:48:06;6.07;;;3.80;;
18857;SDS011;9558;50.178;8.370;2023-02-22T13:53:27;6.05;;;3.20;;
18857;SDS011;9558;50.178;8.370;2023-02-22T13:56:07;6.53;;;3.47;;
18857;SDS011;9558;50.178;8.370;2023-02-22T13:58:46;9.02;;;2.88;;
18857;SDS011;9558;50.178;8.370;2023-02-22T14:04:19;7.32;;;3.30;;
18857;SDS011;9558;50.178;8.370;2023-02-22T14:07:03;8.98;;;3.90;;
18857;SDS011;9558;50.178;8.370;2023-02-22T14:09:52;5.55;;;3.55;;
18857;SDS011;9558;50.178;8.370;2023-02-22T14:15:14;23.35;;;4.50;;
18857;SDS011;9558;50.178;8.370;2023-02-22T14:17:46;9.20;;;4.80;;
18857;SDS011;9558;50.178;8.370;2023-02-22T14:20:25;5.80;;;3.13;;
18857;SDS011;9558;50.178;8.370;2023-02-22T14:22:56;6.97;;;3.90;;
18857;SDS011;9558;50.178;8.370;2023-02-22T14:25:44;8.77;;;3.90;;
18857;SDS011;9558;50.178;8.370;2023-02-22T14:36:37;8.13;;;4.35;;
18857;SDS011;9558;50.178;8.370;2023-02-22T14:39:13;10.05;;;4.70;;
18857;SDS011;9558;50.178;8.370;2023-02-22T14:41:47;9.70;;;4.85;;
18857;SDS011;9558;50.178;8.370;2023-02-22T14:44:19;10.35;;;5.03;;
18857;SDS011;9558;50.178;8.370;2023-02-22T14:46:49;12.27;;;5.35;;
18857;SDS011;9558;50.178;8.370;2023-02-22T14:49:19;13.02;;;5.75;;
18857;SDS011;9558;50.178;8.370;2023-02-22T14:51:49;12.15;;;5.55;;
18857;SDS011;9558;50.178;8.370;2023-02-22T14:54:22;11.98;;;6.13;;
18857;SDS011;9558;50.178;8.370;2023-02-22T14:56:56;10.57;;;6.15;;
18857;SDS011;9558;50.178;8.370;2023-02-22T14:59:39;11.07;;;5.85;;
18857;SDS011;9558;50.178;8.370;2023-02-22T15:02:17;10.30;;;5.25;;
18857;SDS011;9558;50.178;8.370;2023-02-22T15:04:49;11.02;;;5.55;;
18857;SDS011;9558;50.178;8.370;2023-02-22T15:07:19;15.10;;;6.30;;
18857;SDS011;9558;50.178;8.370;2023-02-22T15:09:51;12.50;;;5.43;;
18857;SDS011;9558;50.178;8.370;2023-02-22T15:12:32;15.20;;;6.72;;
18857;SDS011;9558;50.178;8.370;2023-02-22T15:15:09;11.23;;;5.88;;
18857;SDS011;9558;50.178;8.370;2023-02-22T15:17:38;14.10;;;6.47;;
18857;SDS011;9558;50.178;8.370;2023-02-22T15:20:05;18.85;;;6.90;;
18857;SDS011;9558;50.178;8.370;2023-02-22T15:22:35;13.65;;;6.32;;
18857;SDS011;9558;50.178;8.370;2023-02-22T15:25:03;17.00;;;5.90;;
18857;SDS011;9558;50.178;8.370;2023-02-22T15:27:33;13.32;;;5.95;;
18857;SDS011;9558;50.178;8.370;2023-02-22T15:30:02;14.40;;;5.45;;
18857;SDS011;9558;50.178;8.370;2023-02-22T15:32:32;13.50;;;6.28;;
18857;SDS011;9558;50.178;8.370;2023-02-22T15:35:10;13.73;;;5.70;;
18857;SDS011;9558;50.178;8.370;2023-02-22T15:37:38;15.18;;;7.20;;
18857;SDS011;9558;50.178;8.370;2023-02-22T15:40:05;10.73;;;6.20;;
18857;SDS011;9558;50.178;8.370;2023-02-22T15:42:42;9.40;;;4.43;;
18857;SDS011;9558;50.178;8.370;2023-02-22T15:45:13;10.38;;;6.05;;
18857;SDS011;9558;50.178;8.370;2023-02-22T15:47:41;14.25;;;6.13;;
18857;SDS011;9558;50.178;8.370;2023-02-22T15:50:16;11.23;;;5.22;;
18857;SDS011;9558;50.178;8.370;2023-02-22T15:52:48;17.13;;;6.70;;
18857;SDS011;9558;50.178;8.370;2023-02-22T15:55:17;11.55;;;5.95;;
18857;SDS011;9558;50.178;8.370;2023-02-22T16:00:18;14.52;;;6.45;;
18857;SDS011;9558;50.178;8.370;2023-02-22T16:02:46;13.20;;;6.30;;
18857;SDS011;9558;50.178;8.370;2023-02-22T16:05:15;17.05;;;7.28;;
18857;SDS011;9558;50.178;8.370;2023-02-22T16:07:44;14.00;;;6.97;;
18857;SDS011;9558;50.178;8.370;2023-02-22T16:10:23;11.82;;;5.78;;
18857;SDS011;9558;50.178;8.370;2023-02-22T16:13:03;15.10;;;6.00;;